Terminal Aerodrome Forecast
Issued by NWS Omaha/Valley, NE

Home | Current Version | Previous Version | Graphics & Text | Print | Product List | Glossary On
Versions: 1 2 3 4 5 6 7 8 9 10 11 12 13 14 15 16 17 18 19 20 21 22 23 24 25 26 27 28 29 30 31 32 33 34 35 36
000
FTUS43 KOAX 302322
TAFOFK
TAF
KOFK 302322Z 3100/3124 19008KT P6SM BKN120
     FM310200 18008KT P6SM OVC100
     FM311000 20006KT P6SM OVC040 PROB30 3115/3119 5SM -RA OVC025
     FM311900 12006KT P6SM -RA OVC015 PROB30 3121/3124 12008KT 5SM
      -SN OVC007=

USA.gov is the U.S. government's official web portal to all federal, state and local government web resources and services.